CheckWX is a tool to help pilots better visualize weather data.  It is not intended as a substitute for an official pre-flight weather briefing.

22:38:22 UTC

EETN TAF
Tallinn Airport
Tallinn, Estonia
TAF EETN 211700Z 2118/2218 17005KT CAVOK BECMG 2207/2209 23010KT TEMPO 2212/2216 31010KT

Apr-21@
18:00 UTC

Apr-21 @ 18:00 UTC

Apr-22@
07:00 UTC

Apr-22 @ 07:00 UTC

TAF EETN 211700Z 2118/2218 17005KT CAVOK
Wind
  • 170° at 5 KTS
Conditions
No significant weather
Cloud Levels
  • No significant clouds

Apr-22@
07:00 UTC

Apr-22 @ 07:00 UTC

Apr-22@
18:00 UTC

Apr-22 @ 18:00 UTC

BECMG 2207/2209 23010KT

Becoming

Becoming Conditions expected by Mon, Apr 22, 2019 @ 09:00 UTC

Wind
  • 230° at 10 KTS
Conditions
No significant weather
Cloud Levels
  • No significant clouds

Apr-22@
12:00 UTC

Apr-22 @ 12:00 UTC

Apr-22@
16:00 UTC

Apr-22 @ 16:00 UTC

TEMPO 2212/2216 31010KT

Temporary

Temporary Changes expected for less than half the time period

Wind
  • 310° at 10 KTS